Time,TemperatureF,DewpointF,PressureIn,WindDirection,WindDirectionDegrees,WindSpeedMPH,WindSpeedGustMPH,Humidity,HourlyPrecipIn,Conditions,Clouds,dailyrainin,SoftwareType,DateUTC
2013-11-01 00:01:00,68.7,68.4,29.91,South,180,0.0,0.0,99,0.00,,,0.00,meteohub,2013-11-01 04:01:00,
2013-11-01 00:02:00,68.5,68.2,29.91,South,180,0.0,0.0,99,0.00,,,0.00,meteohub,2013-11-01 04:02:00,
2013-11-01 00:03:00,68.5,68.2,29.91,South,180,0.0,0.0,99,0.00,,,0.00,meteohub,2013-11-01 04:03:00,
2013-11-01 00:06:00,68.4,68.0,29.91,South,180,0.0,0.0,99,0.00,,,0.00,meteohub,2013-11-01 04:06:00,
2013-11-01 00:11:00,68.4,68.0,29.91,South,180,0.0,0.0,99,0.00,,,0.00,meteohub,2013-11-01 04:11:00,
2013-11-01 00:16:00,68.2,67.8,29.91,South,180,0.0,0.0,99,0.00,,,0.00,meteohub,2013-11-01 04:16:00,
2013-11-01 00:21:00,68.2,67.8,29.90,South,180,0.0,0.0,99,0.00,,,0.00,meteohub,2013-11-01 04:21:00,
2013-11-01 00:26:00,68.0,67.6,29.90,South,180,0.0,0.0,99,0.00,,,0.00,meteohub,2013-11-01 04:26:00,
2013-11-01 00:31:00,68.0,67.6,29.90,South,180,0.0,0.0,99,0.00,,,0.00,meteohub,2013-11-01 04:31:00,
2013-11-01 00:36:00,67.6,67.3,29.90,South,180,0.0,0.0,99,0.00,,,0.00,meteohub,2013-11-01 04:36:00,
2013-11-01 00:41:00,67.5,67.1,29.89,South,180,0.0,0.0,99,0.00,,,0.00,meteohub,2013-11-01 04:41:00,
2013-11-01 00:47:00,67.3,66.9,29.89,South,180,0.0,0.0,99,0.00,,,0.00,meteohub,2013-11-01 04:47:00,
2013-11-01 00:52:00,67.3,66.9,29.89,South,180,0.0,0.0,99,0.00,,,0.00,meteohub,2013-11-01 04:52:00,
2013-11-01 00:57:00,67.3,66.9,29.88,South,180,0.0,0.0,99,0.00,,,0.00,meteohub,2013-11-01 04:57:00,
2013-11-01 01:02:00,67.3,66.9,29.88,South,180,0.0,2.0,99,0.00,,,0.00,meteohub,2013-11-01 05:02:00,
2013-11-01 01:07:00,67.3,66.9,29.88,South,180,0.0,2.0,99,0.00,,,0.00,meteohub,2013-11-01 05:07:00,
2013-11-01 01:12:00,67.3,66.9,29.88,South,180,0.0,2.0,99,0.00,,,0.00,meteohub,2013-11-01 05:12:00,
2013-11-01 01:17:00,67.3,66.9,29.88,SW,225,0.0,1.0,99,0.00,,,0.00,meteohub,2013-11-01 05:17:00,
2013-11-01 01:22:00,67.3,66.9,29.88,SW,225,0.0,1.0,99,0.00,,,0.00,meteohub,2013-11-01 05:22:00,
2013-11-01 01:27:00,67.8,67.5,29.87,South,180,2.0,2.0,99,0.00,,,0.00,meteohub,2013-11-01 05:27:00,
2013-11-01 01:32:00,67.8,67.5,29.87,NW,315,2.0,2.0,99,0.00,,,0.00,meteohub,2013-11-01 05:32:00,
2013-11-01 01:37:00,68.2,67.8,29.87,SW,225,2.0,2.0,99,0.00,,,0.00,meteohub,2013-11-01 05:37:00,
2013-11-01 01:39:00,68.4,68.0,29.87,West,270,2.0,2.0,99,0.00,,,0.00,meteohub,2013-11-01 05:39:00,
2013-11-01 01:44:00,69.3,68.9,29.87,West,270,2.0,3.0,99,0.00,,,0.00,meteohub,2013-11-01 05:44:00,
2013-11-01 01:49:00,69.4,69.1,29.87,SW,225,1.0,3.0,99,0.00,,,0.00,meteohub,2013-11-01 05:49:00,
2013-11-01 01:54:00,69.6,69.3,29.87,West,270,2.0,4.0,99,0.00,,,0.00,meteohub,2013-11-01 05:54:00,
2013-11-01 01:59:00,70.0,69.6,29.86,West,270,1.0,4.0,99,0.00,,,0.00,meteohub,2013-11-01 05:59:00,
2013-11-01 02:04:00,69.8,69.4,29.86,NW,315,1.0,4.0,99,0.00,,,0.00,meteohub,2013-11-01 06:04:00,
2013-11-01 02:09:00,70.0,69.6,29.86,West,270,2.0,4.0,99,0.00,,,0.00,meteohub,2013-11-01 06:09:00,
2013-11-01 02:14:00,70.2,69.8,29.86,NW,315,1.0,3.0,99,0.00,,,0.00,meteohub,2013-11-01 06:14:00,
2013-11-01 02:19:00,70.3,70.0,29.86,WSW,248,2.0,4.0,99,0.00,,,0.00,meteohub,2013-11-01 06:19:00,
2013-11-01 02:24:00,70.5,70.2,29.87,West,270,2.0,4.0,99,0.00,,,0.00,meteohub,2013-11-01 06:24:00,
2013-11-01 02:29:00,70.7,70.3,29.86,West,270,3.0,6.0,99,0.00,,,0.00,meteohub,2013-11-01 06:29:00,
2013-11-01 02:34:00,70.7,70.3,29.86,SW,225,1.0,6.0,99,0.00,,,0.00,meteohub,2013-11-01 06:34:00,
2013-11-01 02:39:00,70.3,70.0,29.86,SSW,203,2.0,6.0,99,0.00,,,0.00,meteohub,2013-11-01 06:39:00,
2013-11-01 02:44:00,70.2,69.8,29.86,West,270,4.0,4.0,99,0.00,,,0.00,meteohub,2013-11-01 06:44:00,
2013-11-01 02:49:00,70.3,70.0,29.85,West,270,2.0,4.0,99,0.00,,,0.00,meteohub,2013-11-01 06:49:00,
2013-11-01 02:55:00,70.7,70.3,29.85,SW,225,5.0,5.0,99,0.00,,,0.00,meteohub,2013-11-01 06:55:00,
2013-11-01 03:00:00,70.9,70.5,29.85,West,270,6.0,6.0,99,0.00,,,0.00,meteohub,2013-11-01 07:00:00,
2013-11-01 03:05:00,71.1,70.7,29.85,SW,225,4.0,6.0,99,0.00,,,0.00,meteohub,2013-11-01 07:05:00,
2013-11-01 03:10:00,71.1,70.7,29.85,West,270,4.0,7.0,99,0.00,,,0.00,meteohub,2013-11-01 07:10:00,
2013-11-01 03:15:00,70.9,70.5,29.84,SW,225,3.0,7.0,99,0.00,,,0.00,meteohub,2013-11-01 07:15:00,
2013-11-01 03:20:00,70.9,70.5,29.84,West,270,2.0,5.0,99,0.00,,,0.00,meteohub,2013-11-01 07:20:00,
2013-11-01 03:25:00,70.9,70.5,29.84,SW,225,2.0,4.0,99,0.00,,,0.00,meteohub,2013-11-01 07:25:00,
2013-11-01 03:30:00,70.7,70.3,29.84,West,270,4.0,4.0,99,0.00,,,0.00,meteohub,2013-11-01 07:30:00,
2013-11-01 03:35:00,70.5,70.2,29.84,SW,225,3.0,6.0,99,0.00,,,0.00,meteohub,2013-11-01 07:35:00,
2013-11-01 03:40:00,70.2,69.8,29.83,West,270,1.0,6.0,99,0.00,,,0.00,meteohub,2013-11-01 07:40:00,
2013-11-01 03:45:00,70.0,69.6,29.83,West,270,1.0,6.0,99,0.00,,,0.00,meteohub,2013-11-01 07:45:00,
2013-11-01 03:50:00,69.6,69.3,29.83,SE,135,1.0,3.0,99,0.00,,,0.00,meteohub,2013-11-01 07:50:00,
2013-11-01 03:55:00,69.4,69.1,29.83,SE,135,2.0,2.0,99,0.00,,,0.00,meteohub,2013-11-01 07:55:00,
2013-11-01 04:00:00,69.3,68.9,29.82,NW,315,2.0,2.0,99,0.00,,,0.00,meteohub,2013-11-01 08:00:00,
2013-11-01 04:05:00,69.3,68.9,29.82,NE,45,2.0,4.0,99,0.00,,,0.00,meteohub,2013-11-01 08:05:00,
2013-11-01 04:10:00,69.3,68.9,29.82,West,270,2.0,4.0,99,0.00,,,0.00,meteohub,2013-11-01 08:10:00,
2013-11-01 04:15:00,69.4,69.1,29.82,SW,225,4.0,4.0,99,0.00,,,0.00,meteohub,2013-11-01 08:15:00,
2013-11-01 04:21:00,69.4,69.1,29.82,NW,315,2.0,4.0,99,0.00,,,0.00,meteohub,2013-11-01 08:21:00,
2013-11-01 04:26:00,69.3,68.9,29.82,South,180,1.0,4.0,99,0.00,,,0.00,meteohub,2013-11-01 08:26:00,
2013-11-01 04:31:00,69.1,68.7,29.82,East,90,1.0,4.0,99,0.00,,,0.00,meteohub,2013-11-01 08:31:00,
2013-11-01 04:36:00,69.1,68.7,29.82,West,270,1.0,2.0,99,0.00,,,0.00,meteohub,2013-11-01 08:36:00,
2013-11-01 04:41:00,69.1,68.7,29.81,West,270,2.0,2.0,99,0.00,,,0.00,meteohub,2013-11-01 08:41:00,
2013-11-01 04:46:00,69.1,68.7,29.81,West,270,3.0,3.0,99,0.00,,,0.00,meteohub,2013-11-01 08:46:00,
2013-11-01 04:51:00,69.3,68.9,29.81,West,270,2.0,3.0,99,0.00,,,0.00,meteohub,2013-11-01 08:51:00,
2013-11-01 04:56:00,69.3,68.9,29.82,WSW,248,2.0,4.0,99,0.00,,,0.00,meteohub,2013-11-01 08:56:00,
2013-11-01 05:01:00,69.3,68.9,29.81,NW,315,2.0,4.0,99,0.00,,,0.00,meteohub,2013-11-01 09:01:00,
2013-11-01 05:06:00,69.4,69.1,29.81,South,180,2.0,4.0,99,0.00,,,0.00,meteohub,2013-11-01 09:06:00,
2013-11-01 05:11:00,69.3,68.9,29.81,West,270,1.0,4.0,99,0.00,,,0.00,meteohub,2013-11-01 09:11:00,
2013-11-01 05:16:00,69.1,68.7,29.80,SW,225,1.0,4.0,99,0.00,,,0.00,meteohub,2013-11-01 09:16:00,
2013-11-01 05:21:00,68.7,68.4,29.79,West,270,2.0,4.0,99,0.00,,,0.00,meteohub,2013-11-01 09:21:00,
2013-11-01 05:26:00,68.9,68.5,29.78,SW,225,0.0,2.0,99,0.00,,,0.00,meteohub,2013-11-01 09:26:00,
2013-11-01 05:31:00,68.9,68.5,29.79,West,270,3.0,4.0,99,0.00,,,0.00,meteohub,2013-11-01 09:31:00,
2013-11-01 05:36:00,68.9,68.5,29.80,SW,225,4.0,4.0,99,0.00,,,0.00,meteohub,2013-11-01 09:36:00,
2013-11-01 05:41:00,69.1,68.7,29.80,SW,225,2.0,4.0,99,0.00,,,0.00,meteohub,2013-11-01 09:41:00,
2013-11-01 05:47:00,68.9,68.5,29.79,West,270,4.0,4.0,99,0.00,,,0.00,meteohub,2013-11-01 09:47:00,
2013-11-01 05:52:00,68.9,68.5,29.80,West,270,4.0,5.0,99,0.00,,,0.00,meteohub,2013-11-01 09:52:00,
2013-11-01 05:57:00,69.1,68.7,29.80,West,270,4.0,8.0,99,0.00,,,0.00,meteohub,2013-11-01 09:57:00,
2013-11-01 06:02:00,69.1,68.7,29.79,West,270,4.0,8.0,99,0.00,,,0.00,meteohub,2013-11-01 10:02:00,
2013-11-01 06:07:00,69.1,68.7,29.79,WNW,293,3.0,8.0,99,0.00,,,0.00,meteohub,2013-11-01 10:07:00,
2013-11-01 06:12:00,69.1,68.7,29.79,West,270,4.0,7.0,99,0.00,,,0.00,meteohub,2013-11-01 10:12:00,
2013-11-01 06:17:00,69.1,68.7,29.79,NW,315,3.0,5.0,99,0.00,,,0.00,meteohub,2013-11-01 10:17:00,
2013-11-01 06:22:00,68.9,68.5,29.78,West,270,2.0,4.0,99,0.00,,,0.00,meteohub,2013-11-01 10:22:00,
2013-11-01 06:27:00,68.9,68.5,29.79,West,270,5.0,5.0,99,0.00,,,0.00,meteohub,2013-11-01 10:27:00,
2013-11-01 06:32:00,69.1,68.7,29.79,West,270,3.0,7.0,99,0.00,,,0.00,meteohub,2013-11-01 10:32:00,
2013-11-01 06:37:00,68.9,68.5,29.79,WSW,248,4.0,7.0,99,0.00,,,0.00,meteohub,2013-11-01 10:37:00,
2013-11-01 06:42:00,68.9,68.5,29.79,West,270,3.0,7.0,99,0.00,,,0.00,meteohub,2013-11-01 10:42:00,
2013-11-01 06:47:00,68.9,68.5,29.79,SW,225,4.0,5.0,99,0.00,,,0.00,meteohub,2013-11-01 10:47:00,
2013-11-01 06:52:00,68.7,68.4,29.79,West,270,2.0,5.0,99,0.00,,,0.00,meteohub,2013-11-01 10:52:00,
2013-11-01 06:57:00,68.7,68.4,29.79,NW,315,2.0,4.0,99,0.00,,,0.00,meteohub,2013-11-01 10:57:00,
2013-11-01 07:02:00,68.4,68.0,29.79,SW,225,3.0,4.0,99,0.00,,,0.00,meteohub,2013-11-01 11:02:00,
2013-11-01 07:07:00,68.4,68.0,29.80,West,270,2.0,3.0,99,0.00,,,0.00,meteohub,2013-11-01 11:07:00,
2013-11-01 07:12:00,68.4,68.0,29.80,West,270,2.0,3.0,99,0.00,,,0.00,meteohub,2013-11-01 11:12:00,
2013-11-01 07:17:00,68.2,67.8,29.80,North,0,1.0,3.0,99,0.00,,,0.00,meteohub,2013-11-01 11:17:00,
2013-11-01 07:22:00,68.0,67.6,29.80,SW,225,2.0,2.0,99,0.00,,,0.00,meteohub,2013-11-01 11:22:00,
2013-11-01 07:27:00,67.8,67.5,29.81,West,270,2.0,2.0,99,0.00,,,0.00,meteohub,2013-11-01 11:27:00,
2013-11-01 07:32:00,67.8,67.5,29.81,West,270,1.0,2.0,99,0.00,,,0.00,meteohub,2013-11-01 11:32:00,
2013-11-01 07:37:00,67.8,67.5,29.81,West,270,2.0,2.0,99,0.00,,,0.00,meteohub,2013-11-01 11:37:00,
2013-11-01 07:42:00,67.6,67.3,29.82,West,270,1.0,2.0,99,0.00,,,0.00,meteohub,2013-11-01 11:42:00,
2013-11-01 07:47:00,67.6,67.3,29.81,West,270,1.0,2.0,99,0.00,,,0.00,meteohub,2013-11-01 11:47:00,
2013-11-01 07:52:00,67.6,67.3,29.82,West,270,2.0,2.0,99,0.00,,,0.00,meteohub,2013-11-01 11:52:00,
2013-11-01 07:57:00,67.6,67.3,29.82,West,270,1.0,2.0,99,0.00,,,0.00,meteohub,2013-11-01 11:57:00,
2013-11-01 08:02:00,67.8,67.5,29.82,West,270,0.0,2.0,99,0.00,,,0.00,meteohub,2013-11-01 12:02:00,
2013-11-01 08:07:00,67.6,67.3,29.81,East,90,2.0,2.0,99,0.00,,,0.00,meteohub,2013-11-01 12:07:00,
2013-11-01 08:12:00,67.6,67.3,29.81,ESE,113,0.0,2.0,99,0.00,,,0.00,meteohub,2013-11-01 12:12:00,
2013-11-01 08:17:00,68.0,67.6,29.82,ESE,113,0.0,2.0,99,0.00,,,0.00,meteohub,2013-11-01 12:17:00,
2013-11-01 08:22:00,68.2,67.8,29.82,ESE,113,1.0,2.0,99,0.00,,,0.00,meteohub,2013-11-01 12:22:00,
2013-11-01 08:27:00,68.5,68.2,29.82,West,270,2.0,2.0,99,0.00,,,0.00,meteohub,2013-11-01 12:27:00,
2013-11-01 08:32:00,68.9,68.5,29.82,West,270,0.0,2.0,99,0.00,,,0.00,meteohub,2013-11-01 12:32:00,
2013-11-01 08:37:00,68.9,68.5,29.82,SE,135,1.0,3.0,99,0.00,,,0.00,meteohub,2013-11-01 12:37:00,
2013-11-01 08:42:00,69.3,68.9,29.82,West,270,3.0,3.0,99,0.00,,,0.00,meteohub,2013-11-01 12:42:00,
2013-11-01 08:47:00,69.6,69.3,29.83,West,270,3.0,4.0,99,0.00,,,0.00,meteohub,2013-11-01 12:47:00,
2013-11-01 08:52:00,70.2,69.8,29.83,West,270,4.0,4.0,99,0.00,,,0.00,meteohub,2013-11-01 12:52:00,
2013-11-01 08:57:00,70.5,70.2,29.82,West,270,2.0,4.0,99,0.00,,,0.00,meteohub,2013-11-01 12:57:00,
2013-11-01 09:02:00,70.7,70.3,29.83,West,270,3.0,4.0,99,0.00,,,0.00,meteohub,2013-11-01 13:02:00,
2013-11-01 09:07:00,70.9,70.5,29.83,West,270,4.0,6.0,99,0.00,,,0.00,meteohub,2013-11-01 13:07:00,
2013-11-01 09:12:00,71.1,70.7,29.84,West,270,4.0,6.0,99,0.00,,,0.00,meteohub,2013-11-01 13:12:00,
2013-11-01 09:17:00,71.1,70.7,29.83,West,270,4.0,6.0,99,0.00,,,0.00,meteohub,2013-11-01 13:17:00,
2013-11-01 09:22:00,71.2,70.9,29.84,West,270,4.0,7.0,99,0.00,,,0.00,meteohub,2013-11-01 13:22:00,
2013-11-01 09:27:00,71.4,71.1,29.84,West,270,4.0,7.0,99,0.00,,,0.00,meteohub,2013-11-01 13:27:00,
2013-11-01 09:32:00,72.0,71.6,29.83,West,270,6.0,8.0,99,0.00,,,0.00,meteohub,2013-11-01 13:32:00,
2013-11-01 09:37:00,72.1,71.8,29.83,West,270,6.0,8.0,99,0.00,,,0.00,meteohub,2013-11-01 13:37:00,
2013-11-01 09:42:00,72.1,71.8,29.84,West,270,6.0,8.0,99,0.00,,,0.00,meteohub,2013-11-01 13:42:00,
2013-11-01 09:47:00,72.3,72.0,29.83,West,270,5.0,8.0,99,0.00,,,0.00,meteohub,2013-11-01 13:47:00,
2013-11-01 09:52:00,72.5,72.1,29.83,West,270,2.0,8.0,99,0.00,,,0.00,meteohub,2013-11-01 13:52:00,
2013-11-01 09:57:00,72.7,72.3,29.83,West,270,5.0,8.0,99,0.00,,,0.00,meteohub,2013-11-01 13:57:00,
2013-11-01 10:02:00,72.7,72.3,29.84,West,270,4.0,7.0,99,0.00,,,0.00,meteohub,2013-11-01 14:02:00,
2013-11-01 10:07:00,72.7,72.3,29.83,NNW,338,2.0,8.0,99,0.00,,,0.00,meteohub,2013-11-01 14:07:00,
2013-11-01 10:12:00,72.7,72.3,29.84,West,270,5.0,8.0,99,0.00,,,0.00,meteohub,2013-11-01 14:12:00,
2013-11-01 10:17:00,72.7,72.3,29.84,West,270,4.0,8.0,99,0.00,,,0.00,meteohub,2013-11-01 14:17:00,
2013-11-01 10:22:00,72.7,72.3,29.83,West,270,4.0,5.0,99,0.00,,,0.00,meteohub,2013-11-01 14:22:00,
2013-11-01 10:27:00,72.5,72.1,29.84,West,270,5.0,6.0,99,0.00,,,0.00,meteohub,2013-11-01 14:27:00,
2013-11-01 10:32:00,72.5,72.1,29.83,West,270,3.0,6.0,99,0.00,,,0.00,meteohub,2013-11-01 14:32:00,
2013-11-01 10:37:00,72.5,72.1,29.83,SW,225,8.0,8.0,99,0.00,,,0.00,meteohub,2013-11-01 14:37:00,
2013-11-01 10:43:00,72.5,72.1,29.83,West,270,3.0,8.0,99,0.00,,,0.00,meteohub,2013-11-01 14:43:00,
2013-11-01 10:48:00,72.5,72.1,29.83,West,270,5.0,8.0,99,0.00,,,0.00,meteohub,2013-11-01 14:48:00,
2013-11-01 10:53:00,72.7,72.3,29.83,West,270,5.0,8.0,99,0.00,,,0.00,meteohub,2013-11-01 14:53:00,
2013-11-01 10:58:00,72.9,72.5,29.83,WSW,248,4.0,6.0,99,0.00,,,0.00,meteohub,2013-11-01 14:58:00,
2013-11-01 11:03:00,73.4,73.0,29.82,SE,135,3.0,6.0,99,0.00,,,0.00,meteohub,2013-11-01 15:03:00,
2013-11-01 11:08:00,74.1,73.8,29.81,South,180,2.0,6.0,99,0.00,,,0.00,meteohub,2013-11-01 15:08:00,
2013-11-01 11:13:00,74.8,74.5,29.81,West,270,4.0,6.0,99,0.00,,,0.00,meteohub,2013-11-01 15:13:00,
2013-11-01 11:18:00,75.2,74.8,29.81,WNW,293,5.0,6.0,99,0.00,,,0.00,meteohub,2013-11-01 15:18:00,
2013-11-01 11:23:00,75.7,75.4,29.81,West,270,5.0,8.0,99,0.00,,,0.00,meteohub,2013-11-01 15:23:00,
2013-11-01 11:28:00,76.3,75.9,29.81,West,270,9.0,9.0,99,0.00,,,0.00,meteohub,2013-11-01 15:28:00,
2013-11-01 11:33:00,76.6,76.3,29.80,West,270,5.0,8.0,99,0.00,,,0.00,meteohub,2013-11-01 15:33:00,
2013-11-01 11:38:00,77.2,76.8,29.80,SW,225,4.0,9.0,99,0.00,,,0.00,meteohub,2013-11-01 15:38:00,
2013-11-01 11:43:00,77.4,77.0,29.81,NW,315,11.0,11.0,99,0.00,,,0.00,meteohub,2013-11-01 15:43:00,
2013-11-01 11:48:00,77.5,77.2,29.80,West,270,8.0,9.0,99,0.00,,,0.00,meteohub,2013-11-01 15:48:00,
2013-11-01 11:53:00,77.7,77.4,29.80,NW,315,4.0,11.0,99,0.00,,,0.00,meteohub,2013-11-01 15:53:00,
2013-11-01 11:58:00,78.1,77.7,29.80,West,270,9.0,11.0,99,0.00,,,0.00,meteohub,2013-11-01 15:58:00,
2013-11-01 12:03:00,78.4,78.1,29.79,West,270,9.0,11.0,99,0.00,,,0.00,meteohub,2013-11-01 16:03:00,
2013-11-01 12:08:00,79.0,78.6,29.79,West,270,11.0,11.0,99,0.00,,,0.00,meteohub,2013-11-01 16:08:00,
2013-11-01 12:14:00,79.7,79.3,29.79,West,270,12.0,12.0,99,0.00,,,0.00,meteohub,2013-11-01 16:14:00,
2013-11-01 12:19:00,80.2,79.9,29.80,West,270,8.0,11.0,99,0.00,,,0.00,meteohub,2013-11-01 16:19:00,
2013-11-01 12:24:00,80.6,80.2,29.78,West,270,6.0,12.0,99,0.00,,,0.00,meteohub,2013-11-01 16:24:00,
2013-11-01 12:29:00,80.8,80.4,29.78,SW,225,9.0,13.0,99,0.00,,,0.00,meteohub,2013-11-01 16:29:00,
2013-11-01 12:34:00,81.0,80.4,29.77,West,270,10.0,13.0,98,0.00,,,0.00,meteohub,2013-11-01 16:34:00,
2013-11-01 12:39:00,81.0,80.6,29.77,SW,225,8.0,14.0,99,0.00,,,0.00,meteohub,2013-11-01 16:39:00,
2013-11-01 12:44:00,81.5,81.1,29.77,West,270,8.0,14.0,99,0.00,,,0.00,meteohub,2013-11-01 16:44:00,
2013-11-01 12:49:00,82.0,81.1,29.77,NW,315,12.0,14.0,97,0.00,,,0.00,meteohub,2013-11-01 16:49:00,
2013-11-01 12:54:00,82.2,81.3,29.76,North,0,9.0,13.0,97,0.00,,,0.00,meteohub,2013-11-01 16:54:00,
2013-11-01 12:59:00,82.4,81.9,29.77,NW,315,5.0,13.0,98,0.00,,,0.00,meteohub,2013-11-01 16:59:00,
2013-11-01 13:04:00,82.0,81.5,29.76,NW,315,8.0,13.0,98,0.00,,,0.00,meteohub,2013-11-01 17:04:00,
2013-11-01 13:09:00,81.3,80.8,29.76,SW,225,9.0,13.0,98,0.00,,,0.00,meteohub,2013-11-01 17:09:00,
2013-11-01 13:14:00,81.5,81.0,29.75,WNW,293,8.0,13.0,98,0.00,,,0.00,meteohub,2013-11-01 17:14:00,
2013-11-01 13:19:00,82.9,81.3,29.75,NNE,23,13.0,13.0,95,0.00,,,0.00,meteohub,2013-11-01 17:19:00,
2013-11-01 13:24:00,84.2,82.0,29.75,NW,315,11.0,11.0,93,0.00,,,0.00,meteohub,2013-11-01 17:24:00,
2013-11-01 13:30:00,83.1,81.5,29.75,West,270,10.0,15.0,95,0.00,,,0.00,meteohub,2013-11-01 17:30:00,
2013-11-01 13:35:00,83.3,82.0,29.74,West,270,6.0,16.0,96,0.00,,,0.00,meteohub,2013-11-01 17:35:00,
2013-11-01 13:40:00,84.4,82.8,29.73,SW,225,5.0,16.0,95,0.00,,,0.00,meteohub,2013-11-01 17:40:00,
2013-11-01 13:45:00,85.1,82.2,29.73,NW,315,13.0,16.0,91,0.00,,,0.00,meteohub,2013-11-01 17:45:00,
2013-11-01 13:50:00,83.8,81.3,29.73,West,270,15.0,15.0,92,0.00,,,0.00,meteohub,2013-11-01 17:50:00,
2013-11-01 13:55:00,83.1,81.1,29.74,West,270,8.0,13.0,94,0.00,,,0.00,meteohub,2013-11-01 17:55:00,
2013-11-01 14:00:00,82.8,81.5,29.73,NW,315,12.0,16.0,96,0.00,,,0.00,meteohub,2013-11-01 18:00:00,
2013-11-01 14:05:00,83.3,82.0,29.73,West,270,9.0,13.0,96,0.00,,,0.00,meteohub,2013-11-01 18:05:00,
2013-11-01 14:10:00,83.7,81.7,29.72,West,270,9.0,12.0,94,0.00,,,0.00,meteohub,2013-11-01 18:10:00,
2013-11-01 14:15:00,83.3,81.3,29.72,West,270,12.0,15.0,94,0.00,,,0.00,meteohub,2013-11-01 18:15:00,
2013-11-01 14:20:00,82.6,80.6,29.72,North,0,15.0,15.0,94,0.00,,,0.00,meteohub,2013-11-01 18:20:00,
2013-11-01 14:25:00,82.0,80.4,29.72,West,270,11.0,18.0,95,0.00,,,0.00,meteohub,2013-11-01 18:25:00,
2013-11-01 14:30:00,82.0,80.4,29.71,NW,315,11.0,18.0,95,0.00,,,0.00,meteohub,2013-11-01 18:30:00,
2013-11-01 14:35:00,81.9,80.6,29.71,NW,315,6.0,18.0,96,0.00,,,0.00,meteohub,2013-11-01 18:35:00,
2013-11-01 14:40:00,81.5,80.6,29.70,West,270,8.0,12.0,97,0.00,,,0.00,meteohub,2013-11-01 18:40:00,
2013-11-01 14:45:00,81.3,81.0,29.70,West,270,5.0,12.0,99,0.00,,,0.00,meteohub,2013-11-01 18:45:00,
2013-11-01 14:50:00,81.3,80.8,29.70,SW,225,6.0,11.0,98,0.00,,,0.00,meteohub,2013-11-01 18:50:00,
2013-11-01 14:55:00,81.5,81.0,29.70,NW,315,6.0,11.0,98,0.00,,,0.00,meteohub,2013-11-01 18:55:00,
2013-11-01 15:01:00,81.3,80.8,29.70,SW,225,9.0,11.0,98,0.00,,,0.00,meteohub,2013-11-01 19:01:00,
2013-11-01 15:06:00,81.0,80.6,29.71,NW,315,7.0,11.0,99,0.00,,,0.00,meteohub,2013-11-01 19:06:00,
2013-11-01 15:11:00,80.8,80.4,29.70,West,270,11.0,15.0,99,0.00,,,0.00,meteohub,2013-11-01 19:11:00,
2013-11-01 15:16:00,80.6,80.2,29.70,South,180,8.0,15.0,99,0.00,,,0.00,meteohub,2013-11-01 19:16:00,
2013-11-01 15:21:00,80.2,79.9,29.70,West,270,9.0,15.0,99,0.00,,,0.00,meteohub,2013-11-01 19:21:00,
2013-11-01 15:26:00,80.1,79.7,29.70,West,270,8.0,11.0,99,0.00,,,0.00,meteohub,2013-11-01 19:26:00,
2013-11-01 15:31:00,79.7,79.3,29.70,West,270,8.0,10.0,99,0.00,,,0.00,meteohub,2013-11-01 19:31:00,
2013-11-01 15:36:00,79.5,79.2,29.70,West,270,6.0,10.0,99,0.00,,,0.00,meteohub,2013-11-01 19:36:00,
2013-11-01 15:41:00,79.3,79.0,29.70,West,270,6.0,10.0,99,0.00,,,0.00,meteohub,2013-11-01 19:41:00,
2013-11-01 15:46:00,79.3,79.0,29.70,South,180,8.0,11.0,99,0.00,,,0.00,meteohub,2013-11-01 19:46:00,
2013-11-01 15:52:00,79.2,78.8,29.70,West,270,10.0,11.0,99,0.00,,,0.00,meteohub,2013-11-01 19:52:00,
2013-11-01 15:57:00,79.2,78.8,29.70,North,0,14.0,14.0,99,0.00,,,0.00,meteohub,2013-11-01 19:57:00,
2013-11-01 16:02:00,79.0,78.6,29.70,West,270,12.0,14.0,99,0.00,,,0.00,meteohub,2013-11-01 20:02:00,
2013-11-01 16:07:00,79.0,78.6,29.70,West,270,8.0,14.0,99,0.00,,,0.00,meteohub,2013-11-01 20:07:00,
2013-11-01 16:12:00,78.8,78.4,29.69,West,270,9.0,14.0,99,0.00,,,0.00,meteohub,2013-11-01 20:12:00,
2013-11-01 16:17:00,78.6,78.3,29.69,West,270,9.0,12.0,99,0.00,,,0.00,meteohub,2013-11-01 20:17:00,
2013-11-01 16:22:00,78.6,78.3,29.69,West,270,9.0,12.0,99,0.00,,,0.00,meteohub,2013-11-01 20:22:00,
2013-11-01 16:27:00,78.3,77.9,29.70,West,270,8.0,13.0,99,0.00,,,0.00,meteohub,2013-11-01 20:27:00,
2013-11-01 16:32:00,78.3,77.9,29.69,SW,225,11.0,13.0,99,0.00,,,0.00,meteohub,2013-11-01 20:32:00,
2013-11-01 16:37:00,78.1,77.7,29.70,West,270,4.0,11.0,99,0.00,,,0.00,meteohub,2013-11-01 20:37:00,
2013-11-01 16:42:00,78.3,77.9,29.70,West,270,6.0,11.0,99,0.00,,,0.00,meteohub,2013-11-01 20:42:00,
2013-11-01 16:47:00,78.3,77.9,29.70,West,270,8.0,11.0,99,0.00,,,0.00,meteohub,2013-11-01 20:47:00,
2013-11-01 16:52:00,78.1,77.7,29.69,West,270,8.0,11.0,99,0.00,,,0.00,meteohub,2013-11-01 20:52:00,
2013-11-01 16:57:00,78.1,77.7,29.69,SW,225,11.0,11.0,99,0.00,,,0.00,meteohub,2013-11-01 20:57:00,
2013-11-01 17:02:00,78.1,77.7,29.69,NW,315,7.0,11.0,99,0.00,,,0.00,meteohub,2013-11-01 21:02:00,
2013-11-01 17:07:00,77.9,77.5,29.68,NW,315,6.0,11.0,99,0.00,,,0.00,meteohub,2013-11-01 21:07:00,
2013-11-01 17:12:00,77.7,77.4,29.68,NW,315,6.0,11.0,99,0.00,,,0.00,meteohub,2013-11-01 21:12:00,
2013-11-01 17:17:00,77.5,77.2,29.68,West,270,4.0,11.0,99,0.00,,,0.00,meteohub,2013-11-01 21:17:00,
2013-11-01 17:23:00,77.4,77.0,29.68,West,270,4.0,11.0,99,0.00,,,0.00,meteohub,2013-11-01 21:23:00,
2013-11-01 17:28:00,77.4,77.0,29.68,West,270,9.0,12.0,99,0.00,,,0.00,meteohub,2013-11-01 21:28:00,
2013-11-01 17:33:00,77.4,77.0,29.67,West,270,7.0,12.0,99,0.00,,,0.00,meteohub,2013-11-01 21:33:00,
2013-11-01 17:38:00,77.2,76.8,29.68,South,180,5.0,11.0,99,0.00,,,0.00,meteohub,2013-11-01 21:38:00,
2013-11-01 17:43:00,77.0,76.6,29.68,South,180,8.0,11.0,99,0.00,,,0.00,meteohub,2013-11-01 21:43:00,
2013-11-01 17:48:00,77.0,76.6,29.68,West,270,4.0,11.0,99,0.00,,,0.00,meteohub,2013-11-01 21:48:00,
2013-11-01 17:53:00,76.8,76.5,29.68,SW,225,7.0,10.0,99,0.00,,,0.00,meteohub,2013-11-01 21:53:00,
2013-11-01 17:58:00,76.6,76.3,29.68,WNW,293,8.0,10.0,99,0.00,,,0.00,meteohub,2013-11-01 21:58:00,
2013-11-01 18:03:00,76.5,76.1,29.68,SW,225,7.0,10.0,99,0.00,,,0.00,meteohub,2013-11-01 22:03:00,
2013-11-01 18:08:00,76.5,76.1,29.68,West,270,5.0,10.0,99,0.00,,,0.00,meteohub,2013-11-01 22:08:00,
2013-11-01 18:13:00,76.3,75.9,29.68,NW,315,3.0,10.0,99,0.00,,,0.00,meteohub,2013-11-01 22:13:00,
2013-11-01 18:18:00,76.1,75.7,29.68,West,270,4.0,8.0,99,0.00,,,0.00,meteohub,2013-11-01 22:18:00,
2013-11-01 18:23:00,76.1,75.7,29.68,West,270,8.0,11.0,99,0.00,,,0.00,meteohub,2013-11-01 22:23:00,
2013-11-01 18:28:00,75.9,75.6,29.68,SW,225,12.0,12.0,99,0.00,,,0.00,meteohub,2013-11-01 22:28:00,
2013-11-01 18:33:00,76.1,75.7,29.67,West,270,7.0,11.0,99,0.00,,,0.00,meteohub,2013-11-01 22:33:00,
2013-11-01 18:38:00,76.1,75.7,29.67,SW,225,6.0,12.0,99,0.00,,,0.00,meteohub,2013-11-01 22:38:00,
2013-11-01 18:44:00,76.1,75.7,29.67,West,270,4.0,12.0,99,0.00,,,0.00,meteohub,2013-11-01 22:44:00,
2013-11-01 18:49:00,76.1,75.7,29.68,SW,225,7.0,11.0,99,0.00,,,0.00,meteohub,2013-11-01 22:49:00,
2013-11-01 18:54:00,76.3,75.9,29.67,SW,225,8.0,8.0,99,0.00,,,0.00,meteohub,2013-11-01 22:54:00,
2013-11-01 18:59:00,76.3,75.9,29.67,SW,225,8.0,8.0,99,0.00,,,0.00,meteohub,2013-11-01 22:59:00,
2013-11-01 19:04:00,76.5,76.1,29.67,West,270,7.0,13.0,99,0.00,,,0.00,meteohub,2013-11-01 23:04:00,
2013-11-01 19:09:00,76.3,75.9,29.68,West,270,7.0,13.0,99,0.00,,,0.00,meteohub,2013-11-01 23:09:00,
2013-11-01 19:14:00,76.1,75.7,29.68,SW,225,6.0,13.0,99,0.00,,,0.00,meteohub,2013-11-01 23:14:00,
2013-11-01 19:19:00,76.1,75.7,29.68,WNW,293,7.0,10.0,99,0.00,,,0.00,meteohub,2013-11-01 23:19:00,
2013-11-01 19:24:00,75.7,75.4,29.69,NW,315,5.0,10.0,99,0.00,,,0.00,meteohub,2013-11-01 23:24:00,
2013-11-01 19:29:00,75.6,75.2,29.70,West,270,4.0,10.0,99,0.00,,,0.00,meteohub,2013-11-01 23:29:00,
2013-11-01 19:34:00,74.8,74.5,29.70,SW,225,4.0,10.0,99,0.00,,,0.00,meteohub,2013-11-01 23:34:00,
2013-11-01 19:39:00,74.3,73.9,29.70,SW,225,2.0,9.0,99,0.00,,,0.00,meteohub,2013-11-01 23:39:00,
2013-11-01 19:44:00,73.8,73.4,29.70,SW,225,0.0,7.0,99,0.00,,,0.00,meteohub,2013-11-01 23:44:00,
2013-11-01 19:49:00,73.4,73.0,29.70,SW,225,1.0,6.0,99,0.00,,,0.00,meteohub,2013-11-01 23:49:00,
2013-11-01 19:54:00,73.2,72.9,29.70,ESE,113,0.0,4.0,99,0.00,,,0.00,meteohub,2013-11-01 23:54:00,
2013-11-01 19:59:00,72.9,72.5,29.70,ESE,113,0.0,2.0,99,0.00,,,0.00,meteohub,2013-11-01 23:59:00,
2013-11-01 20:04:00,72.7,72.3,29.70,ESE,113,0.0,2.0,99,0.00,,,0.00,meteohub,2013-11-02 00:04:00,
2013-11-01 20:09:00,72.5,72.1,29.70,ESE,113,0.0,2.0,99,0.00,,,0.00,meteohub,2013-11-02 00:09:00,
2013-11-01 20:15:00,72.3,72.0,29.70,ESE,113,0.0,1.0,99,0.00,,,0.00,meteohub,2013-11-02 00:15:00,
2013-11-01 20:20:00,72.3,72.0,29.70,ESE,113,0.0,0.0,99,0.00,,,0.00,meteohub,2013-11-02 00:20:00,
2013-11-01 20:25:00,72.1,71.8,29.70,ESE,113,0.0,0.0,99,0.00,,,0.00,meteohub,2013-11-02 00:25:00,
2013-11-01 20:30:00,72.1,71.8,29.70,ESE,113,0.0,0.0,99,0.00,,,0.00,meteohub,2013-11-02 00:30:00,
2013-11-01 20:35:00,72.1,71.8,29.70,ESE,113,0.0,0.0,99,0.01,,,0.01,meteohub,2013-11-02 00:35:00,
2013-11-01 20:40:00,72.1,71.8,29.70,ESE,113,0.0,0.0,99,0.02,,,0.02,meteohub,2013-11-02 00:40:00,
2013-11-01 20:45:00,72.0,71.6,29.70,ESE,113,0.0,0.0,99,0.02,,,0.02,meteohub,2013-11-02 00:45:00,
2013-11-01 20:50:00,72.0,71.6,29.70,ESE,113,0.0,0.0,99,0.04,,,0.04,meteohub,2013-11-02 00:50:00,
2013-11-01 20:55:00,72.0,71.6,29.70,ESE,113,0.0,0.0,99,0.05,,,0.05,meteohub,2013-11-02 00:55:00,
2013-11-01 21:00:00,72.0,71.6,29.69,ESE,113,1.0,0.0,99,0.06,,,0.06,meteohub,2013-11-02 01:00:00,
2013-11-01 21:05:00,72.0,71.6,29.69,ESE,113,1.0,1.0,99,0.07,,,0.07,meteohub,2013-11-02 01:05:00,
2013-11-01 21:10:00,71.8,71.4,29.69,ESE,113,1.0,2.0,99,0.07,,,0.07,meteohub,2013-11-02 01:10:00,
2013-11-01 21:15:00,71.8,71.4,29.68,ESE,113,0.0,2.0,99,0.08,,,0.08,meteohub,2013-11-02 01:15:00,
2013-11-01 21:20:00,71.8,71.4,29.68,ESE,113,0.0,2.0,99,0.09,,,0.09,meteohub,2013-11-02 01:20:00,
2013-11-01 21:25:00,71.8,71.4,29.69,ESE,113,0.0,2.0,99,0.09,,,0.09,meteohub,2013-11-02 01:25:00,
2013-11-01 21:30:00,71.6,71.2,29.68,ESE,113,1.0,2.0,99,0.08,,,0.09,meteohub,2013-11-02 01:30:00,
2013-11-01 21:35:00,71.6,71.2,29.68,North,0,2.0,2.0,99,0.09,,,0.11,meteohub,2013-11-02 01:35:00,
2013-11-01 21:40:00,71.6,71.2,29.68,NE,45,1.0,2.0,99,0.08,,,0.11,meteohub,2013-11-02 01:40:00,
2013-11-01 21:46:00,71.8,71.4,29.67,NW,315,2.0,2.0,99,0.07,,,0.11,meteohub,2013-11-02 01:46:00,
2013-11-01 21:51:00,71.8,71.4,29.67,NW,315,5.0,8.0,99,0.06,,,0.11,meteohub,2013-11-02 01:51:00,
2013-11-01 21:56:00,72.0,71.6,29.68,West,270,7.0,8.0,99,0.06,,,0.11,meteohub,2013-11-02 01:56:00,
2013-11-01 22:01:00,72.1,71.8,29.71,NW,315,9.0,10.0,99,0.06,,,0.12,meteohub,2013-11-02 02:01:00,
2013-11-01 22:06:00,72.1,71.8,29.71,NW,315,7.0,10.0,99,0.07,,,0.14,meteohub,2013-11-02 02:06:00,
2013-11-01 22:11:00,72.0,71.6,29.71,NNW,338,2.0,10.0,99,0.06,,,0.14,meteohub,2013-11-02 02:11:00,
2013-11-01 22:16:00,72.0,71.6,29.71,SW,225,5.0,9.0,99,0.06,,,0.15,meteohub,2013-11-02 02:16:00,
2013-11-01 22:21:00,72.0,71.6,29.71,West,270,5.0,7.0,99,0.06,,,0.15,meteohub,2013-11-02 02:21:00,
2013-11-01 22:26:00,71.8,71.4,29.70,NW,315,2.0,5.0,99,0.06,,,0.15,meteohub,2013-11-02 02:26:00,
2013-11-01 22:31:00,71.6,71.2,29.70,North,0,2.0,5.0,99,0.05,,,0.15,meteohub,2013-11-02 02:31:00,
2013-11-01 22:36:00,71.4,71.1,29.69,North,0,3.0,5.0,99,0.06,,,0.17,meteohub,2013-11-02 02:36:00,
2013-11-01 22:41:00,71.2,70.9,29.69,West,270,1.0,4.0,99,0.07,,,0.18,meteohub,2013-11-02 02:41:00,
2013-11-01 22:46:00,71.1,70.7,29.70,North,0,1.0,4.0,99,0.08,,,0.19,meteohub,2013-11-02 02:46:00,
2013-11-01 22:51:00,71.1,70.7,29.70,North,0,1.0,3.0,99,0.08,,,0.19,meteohub,2013-11-02 02:51:00,
2013-11-01 22:56:00,71.1,70.7,29.70,NW,315,2.0,2.0,99,0.08,,,0.19,meteohub,2013-11-02 02:56:00,
2013-11-01 23:01:00,70.9,70.5,29.70,NW,315,2.0,2.0,99,0.06,,,0.19,meteohub,2013-11-02 03:01:00,
2013-11-01 23:06:00,70.9,70.5,29.71,West,270,2.0,2.0,99,0.06,,,0.20,meteohub,2013-11-02 03:06:00,
2013-11-01 23:11:00,70.9,70.5,29.71,West,270,1.0,2.0,99,0.06,,,0.20,meteohub,2013-11-02 03:11:00,
2013-11-01 23:17:00,70.7,70.3,29.71,West,270,4.0,4.0,99,0.06,,,0.21,meteohub,2013-11-02 03:17:00,
2013-11-01 23:22:00,70.5,70.2,29.70,SW,225,1.0,4.0,99,0.08,,,0.24,meteohub,2013-11-02 03:22:00,
2013-11-01 23:27:00,70.5,70.2,29.70,North,0,1.0,4.0,99,0.11,,,0.26,meteohub,2013-11-02 03:27:00,
2013-11-01 23:32:00,70.3,70.0,29.70,NNW,338,2.0,4.0,99,0.13,,,0.28,meteohub,2013-11-02 03:32:00,
2013-11-01 23:37:00,70.2,69.8,29.70,NW,315,1.0,3.0,99,0.17,,,0.34,meteohub,2013-11-02 03:37:00,
2013-11-01 23:42:00,70.0,69.6,29.70,NW,315,1.0,3.0,99,0.19,,,0.37,meteohub,2013-11-02 03:42:00,
2013-11-01 23:47:00,70.0,69.6,29.70,West,270,4.0,4.0,99,0.19,,,0.38,meteohub,2013-11-02 03:47:00,
2013-11-01 23:52:00,69.8,69.4,29.70,NW,315,6.0,6.0,99,0.20,,,0.39,meteohub,2013-11-02 03:52:00,
2013-11-01 23:57:00,69.4,69.1,29.70,WNW,293,3.0,6.0,99,0.21,,,0.40,meteohub,2013-11-02 03:57:00,